Time;durP1;ratioP1;P1;durP2;ratioP2;P2;SDS_P1;SDS_P2;PMS_P1;PMS_P2;Temp;Humidity;BMP_temperature;BMP_pressure;BME280_temperature;BME280_humidity;BME280_pressure;Samples;Min_cycle;Max_cycle;Signal;HPM_P1;HPM_P2
2022/03/26 00:00:51;;;;;;;58.40;26.65;;;;;;;9.33;50.55;102533.41;5071737;28;20039;-46
2022/03/26 00:03:17;;;;;;;49.67;25.88;;;;;;;9.25;50.39;102528.72;5073281;28;20035;-48
2022/03/26 00:05:44;;;;;;;68.25;28.20;;;;;;;9.25;51.46;102537.59;5072392;28;20032;-42
2022/03/26 00:08:11;;;;;;;65.53;27.88;;;;;;;9.23;51.03;102533.34;5073885;28;20090;-41
2022/03/26 00:10:37;;;;;;;56.92;28.17;;;;;;;9.08;51.83;102524.78;5074389;28;20111;-43
2022/03/26 00:13:04;;;;;;;58.53;27.38;;;;;;;9.07;51.87;102531.16;5072390;28;20111;-42
2022/03/26 00:15:29;;;;;;;59.55;27.00;;;;;;;9.03;51.48;102533.25;5073254;28;20342;-41
2022/03/26 00:17:55;;;;;;;67.10;29.15;;;;;;;9.03;52.19;102543.13;5073083;28;20059;-41
2022/03/26 00:20:22;;;;;;;59.75;27.98;;;;;;;9.03;51.61;102537.78;5073829;28;20059;-41
2022/03/26 00:22:47;;;;;;;59.60;27.25;;;;;;;9.02;51.94;102544.94;5074286;28;20041;-41
2022/03/26 00:25:15;;;;;;;61.13;29.42;;;;;;;8.92;52.32;102546.72;5073800;28;20036;-43
2022/03/26 00:27:41;;;;;;;63.35;29.13;;;;;;;8.91;52.17;102556.59;5076425;28;20035;-43
2022/03/26 00:30:08;;;;;;;60.47;26.90;;;;;;;8.87;51.89;102543.59;5077686;28;20037;-41
2022/03/26 00:32:34;;;;;;;62.33;28.50;;;;;;;8.65;52.12;102533.84;5077396;28;20036;-43
2022/03/26 00:35:00;;;;;;;68.45;28.35;;;;;;;8.66;52.72;102541.75;5077296;28;20028;-41
2022/03/26 00:37:26;;;;;;;61.25;29.10;;;;;;;8.66;52.65;102541.75;5077331;28;20064;-44
2022/03/26 00:39:53;;;;;;;59.55;27.33;;;;;;;8.61;52.37;102543.97;5076111;28;20035;-44
2022/03/26 00:42:19;;;;;;;57.40;27.15;;;;;;;8.46;52.46;102539.91;5077366;28;20115;-42
2022/03/26 00:44:46;;;;;;;57.85;25.95;;;;;;;8.24;53.03;102535.44;5077694;28;20112;-43
2022/03/26 00:47:12;;;;;;;55.55;26.33;;;;;;;8.22;52.95;102530.22;5093484;28;20031;-46
2022/03/26 00:49:38;;;;;;;65.78;27.25;;;;;;;8.14;53.54;102536.22;5077331;28;20465;-44
2022/03/26 00:52:04;;;;;;;66.68;29.67;;;;;;;8.12;54.25;102546.19;5077040;28;20078;-43
2022/03/26 00:54:30;;;;;;;65.35;27.65;;;;;;;8.04;54.05;102548.66;5075524;28;20029;-43
2022/03/26 00:56:59;;;;;;;61.15;29.27;;;;;;;7.89;54.01;102534.72;5076933;28;20033;-44
2022/03/26 00:59:25;;;;;;;54.70;27.42;;;;;;;7.95;53.82;102541.38;5077405;28;20089;-45
2022/03/26 01:01:51;;;;;;;58.65;27.08;;;;;;;7.91;54.23;102532.75;5077008;28;20032;-43
2022/03/26 01:04:16;;;;;;;70.53;30.80;;;;;;;7.92;53.99;102546.97;5076511;28;20036;-43
2022/03/26 01:06:42;;;;;;;67.47;30.02;;;;;;;7.79;53.86;102539.09;5076790;28;20035;-42
2022/03/26 01:09:08;;;;;;;68.25;28.33;;;;;;;7.78;54.19;102545.41;5076981;28;20115;-41
2022/03/26 01:11:34;;;;;;;67.20;28.20;;;;;;;7.60;55.28;102541.56;5075314;28;20040;-45
2022/03/26 01:14:00;;;;;;;60.58;27.90;;;;;;;7.55;55.41;102553.44;5058715;28;20453;-43
2022/03/26 01:16:27;;;;;;;66.28;28.65;;;;;;;7.52;55.23;102539.47;5076530;28;20037;-44
2022/03/26 01:18:56;;;;;;;68.22;31.17;;;;;;;7.56;55.93;102552.50;5076550;28;20418;-47
2022/03/26 01:21:22;;;;;;;75.93;30.38;;;;;;;7.48;55.90;102557.56;5076441;28;20036;-43
2022/03/26 01:23:48;;;;;;;68.88;28.85;;;;;;;7.32;55.78;102523.22;5076234;28;20044;-43
2022/03/26 01:26:15;;;;;;;70.10;29.52;;;;;;;7.44;56.84;102564.16;5075816;28;20093;-45
2022/03/26 01:28:41;;;;;;;67.57;29.02;;;;;;;7.44;56.17;102550.78;5076357;28;20024;-44
2022/03/26 01:31:07;;;;;;;74.95;30.55;;;;;;;7.39;56.66;102552.97;5076131;28;20075;-46
2022/03/26 01:33:34;;;;;;;78.68;31.77;;;;;;;7.38;56.72;102547.75;5074485;28;20059;-42
2022/03/26 01:35:59;;;;;;;69.05;28.42;;;;;;;7.31;55.90;102547.38;5075764;28;20024;-46
2022/03/26 01:38:25;;;;;;;74.20;30.90;;;;;;;7.34;56.82;102541.81;5074562;28;20086;-42
2022/03/26 01:40:51;;;;;;;71.03;31.05;;;;;;;7.40;56.40;102537.78;5075672;28;20056;-42
2022/03/26 01:43:17;;;;;;;74.43;30.50;;;;;;;7.41;56.68;102540.34;5074918;28;20055;-44
2022/03/26 01:45:43;;;;;;;71.35;30.05;;;;;;;7.18;55.86;102524.28;5091443;28;20469;-44
2022/03/26 01:48:09;;;;;;;65.88;27.90;;;;;;;7.23;56.30;102545.31;5074897;28;20024;-43
2022/03/26 01:50:35;;;;;;;64.25;26.45;;;;;;;7.12;56.92;102532.78;5076045;28;20388;-44
2022/03/26 01:53:01;;;;;;;64.53;27.08;;;;;;;7.08;56.86;102546.53;5076169;28;20518;-46
2022/03/26 01:55:28;;;;;;;66.97;29.80;;;;;;;6.98;57.09;102536.56;5075160;28;20041;-43
2022/03/26 01:57:55;;;;;;;81.30;33.47;;;;;;;7.00;57.64;102531.06;5075804;28;20027;-42
2022/03/26 02:00:21;;;;;;;64.15;30.25;;;;;;;7.11;57.76;102539.13;5075734;28;20473;-43
2022/03/26 02:02:47;;;;;;;74.85;31.38;;;;;;;7.03;57.58;102538.84;5076421;28;20031;-42
2022/03/26 02:05:15;;;;;;;65.75;29.38;;;;;;;6.93;58.07;102537.88;5075970;28;20029;-42
2022/03/26 02:07:43;;;;;;;65.55;28.75;;;;;;;6.87;57.84;102536.53;5074150;28;20024;-42
2022/03/26 02:10:11;;;;;;;64.80;31.58;;;;;;;6.75;58.19;102532.97;5074662;28;20024;-41
2022/03/26 02:12:37;;;;;;;63.85;28.40;;;;;;;6.72;58.62;102535.00;5075201;28;20043;-44
2022/03/26 02:15:06;;;;;;;67.93;29.65;;;;;;;6.76;58.68;102544.47;5075818;28;20024;-42
2022/03/26 02:17:33;;;;;;;69.70;29.70;;;;;;;6.67;58.87;102535.38;5075526;28;20028;-42
2022/03/26 02:20:00;;;;;;;63.58;28.23;;;;;;;6.56;58.32;102519.31;5075325;28;20041;-42
2022/03/26 02:22:28;;;;;;;76.60;30.58;;;;;;;6.55;58.78;102528.28;5057489;28;20569;-43
2022/03/26 02:24:55;;;;;;;65.03;29.63;;;;;;;6.57;58.51;102545.91;5075154;28;20037;-44
2022/03/26 02:27:22;;;;;;;66.03;29.73;;;;;;;6.49;59.53;102550.13;5074911;28;20036;-44
2022/03/26 02:29:48;;;;;;;77.57;30.50;;;;;;;6.50;59.09;102542.00;5074901;28;20047;-43
2022/03/26 02:32:14;;;;;;;68.60;30.05;;;;;;;6.43;58.91;102539.91;5075203;28;20028;-44
2022/03/26 02:34:40;;;;;;;75.18;30.58;;;;;;;6.46;58.70;102542.31;5074877;28;20546;-42
2022/03/26 02:37:06;;;;;;;62.65;27.50;;;;;;;6.45;58.97;102538.81;5074465;28;20369;-42
2022/03/26 02:39:31;;;;;;;73.88;30.25;;;;;;;6.45;59.12;102536.16;5074566;28;20028;-44
2022/03/26 02:41:57;;;;;;;64.22;28.20;;;;;;;6.34;58.84;102528.94;5074446;28;20055;-43
2022/03/26 02:44:23;;;;;;;60.97;28.05;;;;;;;6.27;59.31;102525.03;5074501;28;20116;-46
2022/03/26 02:46:49;;;;;;;63.08;27.85;;;;;;;6.23;59.57;102528.06;5074562;28;20455;-44
2022/03/26 02:49:15;;;;;;;65.97;27.60;;;;;;;6.19;60.00;102524.75;5073824;28;20366;-46
2022/03/26 02:51:42;;;;;;;69.15;29.58;;;;;;;6.25;59.37;102526.13;5073178;28;20032;-43
2022/03/26 02:54:18;;;;;;;68.20;28.70;;;;;;;6.18;59.73;102518.56;5056371;28;20037;-47
2022/03/26 02:56:47;;;;;;;62.45;28.40;;;;;;;6.17;59.82;102519.53;5074199;28;20052;-43
2022/03/26 02:59:12;;;;;;;62.67;27.85;;;;;;;6.05;60.06;102516.91;5073847;28;20032;-42
2022/03/26 03:01:38;;;;;;;64.18;27.77;;;;;;;5.96;59.66;102515.78;5072998;28;20110;-44
2022/03/26 03:04:04;;;;;;;73.22;31.23;;;;;;;5.90;60.12;102513.53;5074146;28;20039;-43
2022/03/26 03:06:31;;;;;;;89.88;33.67;;;;;;;5.80;60.41;102511.53;5074171;28;20413;-42
2022/03/26 03:08:57;;;;;;;88.65;33.58;;;;;;;5.58;62.14;102517.56;5074098;28;20029;-43
2022/03/26 03:11:23;;;;;;;76.93;31.00;;;;;;;5.79;61.11;102519.63;5073860;28;20024;-45
2022/03/26 03:13:49;;;;;;;76.10;30.88;;;;;;;5.84;60.05;102516.66;5074158;28;20032;-44
2022/03/26 03:16:15;;;;;;;73.70;30.65;;;;;;;5.73;61.22;102522.75;5074363;28;20025;-42
2022/03/26 03:18:41;;;;;;;89.80;33.28;;;;;;;5.62;61.94;102521.72;5074264;28;20028;-43
2022/03/26 03:21:07;;;;;;;71.95;30.27;;;;;;;5.61;60.70;102520.03;5073805;28;20520;-42
2022/03/26 03:23:33;;;;;;;76.55;32.42;;;;;;;5.52;61.36;102518.00;5074001;28;20032;-43
2022/03/26 03:25:59;;;;;;;73.68;30.08;;;;;;;5.45;61.27;102503.41;5072191;28;20104;-44
2022/03/26 03:28:25;;;;;;;76.63;29.98;;;;;;;5.48;61.24;102532.53;5073895;28;20504;-41
2022/03/26 03:30:51;;;;;;;62.33;28.45;;;;;;;5.41;61.33;102523.25;5073520;28;20476;-43
2022/03/26 03:33:17;;;;;;;85.53;32.80;;;;;;;5.47;61.60;102528.13;5073758;28;20036;-42
2022/03/26 03:35:43;;;;;;;71.45;28.73;;;;;;;5.47;60.71;102533.47;5074424;28;20124;-41
2022/03/26 03:38:09;;;;;;;69.32;30.92;;;;;;;5.40;61.53;102530.41;5074458;28;20072;-42
2022/03/26 03:40:35;;;;;;;82.63;31.45;;;;;;;5.37;62.03;102532.44;5074118;28;20479;-44
2022/03/26 03:43:00;;;;;;;76.05;31.15;;;;;;;5.30;62.33;102528.50;5072611;28;20032;-42
2022/03/26 03:45:26;;;;;;;79.93;31.02;;;;;;;5.31;61.40;102519.53;5072692;28;20412;-43
2022/03/26 03:47:52;;;;;;;68.68;28.90;;;;;;;5.21;61.59;102514.00;5073519;28;20031;-43
2022/03/26 03:50:18;;;;;;;74.35;29.45;;;;;;;5.24;62.02;102530.63;5072461;28;20123;-43
2022/03/26 03:52:44;;;;;;;74.18;31.23;;;;;;;5.22;62.76;102534.38;5072548;28;20082;-43
2022/03/26 03:55:11;;;;;;;73.60;29.73;;;;;;;5.23;61.95;102541.38;5073433;28;20076;-43
2022/03/26 03:57:45;;;;;;;79.65;31.23;;;;;;;5.20;62.27;102544.25;5073577;28;20029;-43
2022/03/26 04:00:13;;;;;;;72.95;31.02;;;;;;;5.15;62.93;102535.75;5073981;28;20453;-42
2022/03/26 04:02:40;;;;;;;73.35;30.75;;;;;;;5.11;63.81;102540.44;5077473;28;20028;-44
2022/03/26 04:05:09;;;;;;;65.43;26.42;;;;;;;4.99;62.67;102534.13;5077552;28;20473;-42
2022/03/26 04:07:37;;;;;;;64.63;25.52;;;;;;;4.93;62.45;102525.72;5078001;28;20455;-44
2022/03/26 04:10:04;;;;;;;53.75;25.70;;;;;;;4.97;62.69;102535.19;5078075;28;20028;-42
2022/03/26 04:12:30;;;;;;;61.72;27.55;;;;;;;4.96;63.24;102547.66;5077242;28;20028;-41
2022/03/26 04:14:56;;;;;;;66.80;26.63;;;;;;;4.94;63.75;102538.06;5078005;28;20020;-40
2022/03/26 04:17:22;;;;;;;69.80;29.48;;;;;;;4.97;63.50;102545.84;5076902;28;20025;-42
2022/03/26 04:19:48;;;;;;;64.88;29.15;;;;;;;4.87;62.79;102528.78;5078887;28;20036;-41
2022/03/26 04:22:14;;;;;;;65.95;27.05;;;;;;;4.88;63.08;102546.47;5078342;28;20507;-41
2022/03/26 04:24:40;;;;;;;63.70;28.15;;;;;;;4.89;63.49;102543.72;5078413;28;20074;-45
2022/03/26 04:27:06;;;;;;;64.45;26.95;;;;;;;4.85;63.47;102545.75;5077649;28;20033;-43
2022/03/26 04:29:32;;;;;;;71.03;29.73;;;;;;;4.73;63.77;102540.41;5077115;28;20073;-42
2022/03/26 04:31:58;;;;;;;71.57;29.75;;;;;;;4.81;63.53;102549.56;5076176;28;20123;-44
2022/03/26 04:34:25;;;;;;;62.67;27.92;;;;;;;4.67;64.04;102531.03;5077038;28;20044;-43
2022/03/26 04:36:51;;;;;;;63.88;27.38;;;;;;;4.78;63.63;102555.09;5075703;28;20031;-44
2022/03/26 04:39:17;;;;;;;56.65;25.20;;;;;;;4.67;63.86;102536.34;5076560;28;20481;-43
2022/03/26 04:41:43;;;;;;;63.20;27.05;;;;;;;4.77;63.14;102560.53;5076839;28;20047;-43
2022/03/26 04:44:08;;;;;;;61.08;27.38;;;;;;;4.71;63.46;102559.13;5077051;28;20032;-43
2022/03/26 04:46:34;;;;;;;71.25;27.05;;;;;;;4.67;63.11;102565.63;5077185;28;20037;-43
2022/03/26 04:49:00;;;;;;;59.40;25.92;;;;;;;4.69;64.41;102568.19;5076752;28;20035;-42
2022/03/26 04:51:26;;;;;;;61.80;26.67;;;;;;;4.76;63.40;102569.47;5077178;28;20428;-43
2022/03/26 04:53:52;;;;;;;70.15;25.52;;;;;;;4.72;63.86;102570.63;5076792;28;20373;-44
2022/03/26 04:56:19;;;;;;;63.33;26.70;;;;;;;4.65;63.79;102564.88;5076195;28;20079;-43
2022/03/26 04:58:44;;;;;;;68.85;27.95;;;;;;;4.61;63.94;102566.03;5076293;28;20423;-43
2022/03/26 05:01:10;;;;;;;65.68;27.83;;;;;;;4.60;63.90;102567.81;5076369;28;20039;-42
2022/03/26 05:03:36;;;;;;;55.03;26.23;;;;;;;4.56;64.56;102568.16;5076863;28;20342;-43
2022/03/26 05:06:01;;;;;;;65.93;28.20;;;;;;;4.55;64.31;102574.41;5076361;28;20392;-43
2022/03/26 05:08:27;;;;;;;59.83;24.50;;;;;;;4.57;64.07;102575.16;5076195;28;20036;-43
2022/03/26 05:10:53;;;;;;;67.45;25.85;;;;;;;4.52;64.11;102579.94;5074646;28;20043;-43
2022/03/26 05:13:19;;;;;;;57.95;24.00;;;;;;;4.50;64.24;102584.53;5076312;28;20035;-43
2022/03/26 05:15:45;;;;;;;55.58;26.10;;;;;;;4.39;64.80;102563.94;5076149;28;20024;-42
2022/03/26 05:18:13;;;;;;;60.10;26.17;;;;;;;4.42;64.68;102571.69;5076202;28;20472;-43
2022/03/26 05:20:39;;;;;;;64.97;28.73;;;;;;;4.38;65.36;102571.09;5075190;28;20032;-42
2022/03/26 05:23:05;;;;;;;69.18;27.98;;;;;;;4.33;65.72;102570.53;5075764;28;20056;-42
2022/03/26 05:25:31;;;;;;;67.90;27.70;;;;;;;4.24;66.35;102571.13;5075742;28;20029;-42
2022/03/26 05:27:58;;;;;;;62.20;26.40;;;;;;;4.18;65.61;102560.88;5075483;28;20508;-42
2022/03/26 05:30:24;;;;;;;66.65;28.95;;;;;;;4.20;66.49;102580.25;5075828;28;20679;-42
2022/03/26 05:33:02;;;;;;;63.63;27.77;;;;;;;4.20;67.18;102578.44;5075760;28;20469;-42
2022/03/26 05:35:28;;;;;;;54.95;24.20;;;;;;;4.22;66.44;102581.84;5075895;28;20108;-42
2022/03/26 05:37:54;;;;;;;71.95;28.33;;;;;;;4.20;66.00;102582.94;5075761;28;20036;-42
2022/03/26 05:40:21;;;;;;;67.53;29.38;;;;;;;4.12;66.94;102590.53;5075803;28;20051;-42
2022/03/26 05:42:48;;;;;;;62.22;28.15;;;;;;;4.12;67.05;102594.03;5075556;28;20103;-44
2022/03/26 05:45:14;;;;;;;67.13;26.83;;;;;;;4.20;66.25;102596.22;5075606;28;20043;-43
2022/03/26 05:47:41;;;;;;;65.10;26.83;;;;;;;4.20;65.66;102601.53;5075057;28;20033;-43
2022/03/26 05:50:10;;;;;;;64.07;27.65;;;;;;;4.19;65.78;102603.31;5075596;28;20099;-42
2022/03/26 05:52:36;;;;;;;51.90;24.27;;;;;;;4.21;65.65;102609.38;5074911;28;20111;-42
2022/03/26 05:55:02;;;;;;;52.55;23.00;;;;;;;4.27;65.21;102608.13;5075115;28;20045;-43
2022/03/26 05:57:28;;;;;;;54.10;23.92;;;;;;;4.19;65.53;102602.47;5075185;28;20024;-44
2022/03/26 05:59:54;;;;;;;59.03;25.17;;;;;;;4.22;65.66;102623.56;5074349;28;20365;-42
2022/03/26 06:02:21;;;;;;;54.25;24.35;;;;;;;4.21;66.00;102620.03;5074983;28;20400;-44
2022/03/26 06:04:47;;;;;;;60.38;26.50;;;;;;;4.25;65.43;102620.69;5075427;28;20077;-43
2022/03/26 06:07:13;;;;;;;69.03;27.60;;;;;;;4.18;65.45;102606.94;5075488;28;20465;-43
2022/03/26 06:09:39;;;;;;;72.32;28.80;;;;;;;4.35;65.35;102623.63;5075060;28;20106;-44
2022/03/26 06:12:06;;;;;;;68.38;28.55;;;;;;;4.38;65.25;102626.94;5074044;28;20446;-43
2022/03/26 06:14:32;;;;;;;61.40;27.17;;;;;;;4.32;64.78;102619.34;5058046;28;20070;-42
2022/03/26 06:16:58;;;;;;;58.00;25.65;;;;;;;4.27;65.04;102624.09;5074146;28;20060;-42
2022/03/26 06:19:26;;;;;;;49.70;24.80;;;;;;;4.21;65.78;102622.69;5091529;28;20178;-42
2022/03/26 06:21:52;;;;;;;68.78;27.65;;;;;;;4.21;65.39;102624.50;5076742;28;20173;-43
2022/03/26 06:24:18;;;;;;;58.42;25.50;;;;;;;4.24;65.55;102624.31;5073419;28;20032;-44
2022/03/26 06:26:44;;;;;;;64.30;25.67;;;;;;;4.20;66.25;102633.44;5074956;28;20040;-42
2022/03/26 06:29:12;;;;;;;56.45;24.95;;;;;;;4.24;65.38;102633.13;5074665;28;20029;-43
2022/03/26 06:31:38;;;;;;;61.95;26.63;;;;;;;4.31;66.29;102640.72;5073102;28;20106;-43
2022/03/26 06:34:04;;;;;;;66.15;27.23;;;;;;;4.34;65.24;102633.38;5073174;28;20032;-40
2022/03/26 06:36:30;;;;;;;72.43;27.10;;;;;;;4.19;65.63;102623.75;5074727;28;20028;-41
2022/03/26 06:38:56;;;;;;;64.95;27.13;;;;;;;4.21;66.10;102622.69;5074957;28;20035;-43
2022/03/26 06:41:23;;;;;;;57.47;26.30;;;;;;;4.28;66.01;102627.63;5074668;28;20039;-42
2022/03/26 06:43:48;;;;;;;66.55;29.70;;;;;;;4.30;66.00;102634.56;5075055;28;20048;-47
2022/03/26 06:46:14;;;;;;;56.28;24.67;;;;;;;4.39;66.48;102644.59;5074859;28;20496;-44
2022/03/26 06:48:40;;;;;;;66.95;30.23;;;;;;;4.37;66.22;102640.34;5074734;28;20020;-42
2022/03/26 06:51:08;;;;;;;72.35;30.05;;;;;;;4.42;66.52;102636.44;5073538;28;20024;-42
2022/03/26 06:53:36;;;;;;;67.70;27.92;;;;;;;4.51;66.00;102642.94;5074518;28;20039;-43
2022/03/26 06:56:05;;;;;;;61.75;29.15;;;;;;;4.51;66.68;102642.94;5073259;28;20056;-42
2022/03/26 06:58:30;;;;;;;72.25;29.40;;;;;;;4.51;66.26;102629.63;5073361;28;20032;-42
2022/03/26 07:00:58;;;;;;;62.60;25.85;;;;;;;4.66;65.56;102649.06;5072885;28;20036;-43
2022/03/26 07:03:25;;;;;;;64.28;27.95;;;;;;;4.72;65.84;102651.34;5073291;28;20028;-41
2022/03/26 07:05:51;;;;;;;68.57;28.80;;;;;;;4.72;66.74;102651.34;5074561;28;20028;-40
2022/03/26 07:08:17;;;;;;;54.28;26.38;;;;;;;4.70;66.03;102639.94;5075039;28;20032;-41
2022/03/26 07:10:45;;;;;;;70.68;30.00;;;;;;;4.84;66.30;102655.81;5074889;28;20032;-41
2022/03/26 07:13:12;;;;;;;70.78;28.40;;;;;;;4.88;65.47;102661.81;5074762;28;20124;-43
2022/03/26 07:15:37;;;;;;;64.32;30.23;;;;;;;4.99;66.03;102667.25;5074728;28;20472;-41
2022/03/26 07:18:03;;;;;;;60.60;27.63;;;;;;;5.08;64.77;102668.47;5074990;28;20032;-46
2022/03/26 07:20:29;;;;;;;71.70;30.00;;;;;;;5.16;65.62;102670.59;5073193;28;20388;-43
2022/03/26 07:22:55;;;;;;;80.18;30.58;;;;;;;5.18;64.43;102666.91;5073510;28;20055;-44
2022/03/26 07:25:21;;;;;;;66.03;27.63;;;;;;;5.22;64.54;102667.56;5073425;28;20064;-47
2022/03/26 07:27:46;;;;;;;61.95;29.23;;;;;;;5.36;63.88;102675.44;5074349;28;20044;-44
2022/03/26 07:30:12;;;;;;;64.68;27.63;;;;;;;5.34;64.16;102669.38;5074221;28;20028;-43
2022/03/26 07:32:38;;;;;;;66.95;30.27;;;;;;;5.41;64.14;102675.97;5089824;28;20028;-43
2022/03/26 07:35:05;;;;;;;63.65;27.17;;;;;;;5.48;63.79;102673.75;5073628;28;20361;-43
2022/03/26 07:37:31;;;;;;;72.80;28.38;;;;;;;5.52;64.27;102683.25;5074271;28;20031;-42
2022/03/26 07:39:57;;;;;;;76.07;30.13;;;;;;;5.58;64.37;102679.31;5074176;28;20369;-45
2022/03/26 07:42:22;;;;;;;70.55;28.60;;;;;;;5.63;63.18;102680.69;5074754;28;20461;-44
2022/03/26 07:44:48;;;;;;;64.35;27.00;;;;;;;5.54;63.52;102657.34;5074469;28;20037;-43
2022/03/26 07:47:14;;;;;;;69.22;29.23;;;;;;;5.72;63.47;102686.31;5074472;28;20093;-42
2022/03/26 07:49:40;;;;;;;66.43;28.30;;;;;;;5.70;62.89;102664.25;5074426;28;20020;-44
2022/03/26 07:52:06;;;;;;;82.72;31.52;;;;;;;5.82;64.13;102680.25;5073203;28;20502;-43
2022/03/26 07:54:32;;;;;;;74.28;30.55;;;;;;;5.86;62.97;102680.03;5073417;28;20040;-43
2022/03/26 07:56:57;;;;;;;76.63;30.90;;;;;;;5.94;63.77;102683.00;5073885;28;20028;-41
2022/03/26 07:59:23;;;;;;;80.57;31.58;;;;;;;5.99;64.31;102679.09;5074172;28;20071;-46
2022/03/26 08:01:49;;;;;;;73.25;31.13;;;;;;;6.02;63.41;102680.69;5073067;28;20033;-44
2022/03/26 08:04:14;;;;;;;63.22;27.15;;;;;;;6.08;62.72;102677.59;5073985;28;20029;-43
2022/03/26 08:06:40;;;;;;;86.22;31.42;;;;;;;6.19;63.53;102674.16;5089835;28;20094;-43
2022/03/26 08:09:06;;;;;;;75.03;30.92;;;;;;;6.27;62.65;102676.28;5073870;28;20029;-43
2022/03/26 08:11:32;;;;;;;74.95;32.28;;;;;;;6.26;62.28;102656.75;5074257;28;20108;-45
2022/03/26 08:13:58;;;;;;;69.35;31.88;;;;;;;6.35;62.30;102657.88;5073325;28;20521;-44
2022/03/26 08:16:23;;;;;;;94.03;34.55;;;;;;;6.50;62.81;102678.13;5075186;28;20024;-42
2022/03/26 08:18:49;;;;;;;87.70;34.88;;;;;;;6.46;62.81;102665.09;5074303;28;20063;-43
2022/03/26 08:21:16;;;;;;;82.30;34.40;;;;;;;6.59;62.90;102674.78;5074880;28;20028;-43
2022/03/26 08:23:41;;;;;;;81.43;34.05;;;;;;;6.69;61.95;102684.78;5073280;28;20052;-47
2022/03/26 08:26:23;;;;;;;89.70;34.40;;;;;;;6.65;62.42;102659.25;5072614;28;20060;-41
2022/03/26 08:28:50;;;;;;;91.90;36.13;;;;;;;6.76;62.53;102661.97;5074078;28;20112;-41
2022/03/26 08:31:17;;;;;;;95.85;35.08;;;;;;;6.95;63.00;102681.03;5074249;28;20112;-46
2022/03/26 08:33:43;;;;;;;103.45;35.78;;;;;;;7.08;61.69;102674.75;5072944;28;20071;-43
2022/03/26 08:36:10;;;;;;;92.85;36.60;;;;;;;7.17;62.58;102680.25;5074121;28;20043;-45
2022/03/26 08:38:36;;;;;;;100.75;35.90;;;;;;;7.28;61.88;102679.44;5073980;28;20360;-44
2022/03/26 08:41:03;;;;;;;92.78;35.28;;;;;;;7.32;62.18;102672.03;5073903;28;20043;-45
2022/03/26 08:43:29;;;;;;;90.30;35.28;;;;;;;7.40;61.31;102664.28;5073764;28;20044;-43
2022/03/26 08:45:55;;;;;;;99.47;36.97;;;;;;;7.60;60.64;102675.25;5072933;28;20044;-42
2022/03/26 08:48:21;;;;;;;89.95;36.60;;;;;;;7.72;61.21;102676.94;5077607;28;20033;-43
2022/03/26 08:50:47;;;;;;;96.20;35.30;;;;;;;7.79;60.40;102669.31;5077792;28;20098;-43
2022/03/26 08:53:13;;;;;;;95.78;34.80;;;;;;;7.92;60.22;102672.72;5059610;28;20039;-43
2022/03/26 08:55:39;;;;;;;79.50;31.85;;;;;;;8.10;59.47;102679.28;5075873;28;20045;-43
2022/03/26 08:58:07;;;;;;;88.57;35.85;;;;;;;8.19;59.63;102668.81;5076432;28;20029;-47
2022/03/26 09:00:34;;;;;;;84.63;33.30;;;;;;;8.39;59.80;102673.38;5077749;28;20043;-43
2022/03/26 09:03:01;;;;;;;97.68;35.78;;;;;;;8.51;59.32;102666.22;5077458;28;20025;-45
2022/03/26 09:05:27;;;;;;;88.32;36.70;;;;;;;8.64;59.08;102672.28;5076346;28;20426;-43
2022/03/26 09:07:53;;;;;;;104.13;34.58;;;;;;;8.89;59.49;102681.78;5077409;28;20103;-42
2022/03/26 09:10:19;;;;;;;91.13;35.45;;;;;;;9.09;58.18;102673.94;5076581;28;20472;-42
2022/03/26 09:12:46;;;;;;;85.13;32.45;;;;;;;9.29;57.72;102678.44;5076854;28;20040;-42
2022/03/26 09:15:12;;;;;;;85.88;34.05;;;;;;;9.50;57.17;102670.38;5075558;28;20028;-45
2022/03/26 09:17:39;;;;;;;71.88;33.17;;;;;;;9.67;57.06;102658.19;5077000;28;20032;-42
2022/03/26 09:20:06;;;;;;;83.63;34.03;;;;;;;10.04;56.67;102676.44;5076551;28;20084;-42
2022/03/26 09:22:34;;;;;;;94.30;34.40;;;;;;;10.23;56.37;102678.38;5076052;28;20032;-42
2022/03/26 09:25:00;;;;;;;80.15;33.95;;;;;;;10.70;55.24;102676.91;5058805;28;20047;-46
2022/03/26 09:27:26;;;;;;;80.65;32.08;;;;;;;11.81;52.03;102668.28;5076124;28;20028;-42
2022/03/26 09:29:52;;;;;;;84.53;31.60;;;;;;;13.83;47.90;102666.19;5076860;28;20043;-43
2022/03/26 09:32:18;;;;;;;80.28;33.85;;;;;;;15.29;43.97;102667.53;5058506;28;20113;-42
2022/03/26 09:34:43;;;;;;;68.63;31.23;;;;;;;16.39;43.26;102666.03;5075199;28;20024;-42
2022/03/26 09:37:09;;;;;;;73.78;30.38;;;;;;;17.32;40.90;102648.69;5077106;28;20448;-44
2022/03/26 09:39:35;;;;;;;70.97;31.65;;;;;;;18.01;39.46;102653.06;5077195;28;20024;-53
2022/03/26 09:42:02;;;;;;;63.75;30.45;;;;;;;18.85;38.55;102658.03;5075412;28;20028;-43
2022/03/26 09:44:31;;;;;;;71.60;32.15;;;;;;;18.63;35.50;102657.13;5092169;28;20037;-41
2022/03/26 09:46:57;;;;;;;64.75;30.60;;;;;;;19.57;36.86;102641.59;5076230;28;20041;-42
2022/03/26 09:49:23;;;;;;;66.78;30.90;;;;;;;19.09;34.06;102654.03;5076055;28;20425;-43
2022/03/26 09:51:54;;;;;;;61.50;29.98;;;;;;;19.89;35.54;102635.50;5076470;28;20039;-44
2022/03/26 09:54:21;;;;;;;61.13;29.05;;;;;;;20.73;33.95;102640.81;5076087;28;20524;-44
2022/03/26 09:56:47;;;;;;;64.15;29.30;;;;;;;20.09;34.04;102640.19;5074525;28;20087;-44
2022/03/26 09:59:13;;;;;;;56.78;29.65;;;;;;;21.00;34.48;102647.13;5074984;28;20111;-45
2022/03/26 10:01:39;;;;;;;55.97;27.83;;;;;;;21.80;32.54;102645.16;5075786;28;20028;-44
2022/03/26 10:04:11;;;;;;;58.13;27.90;;;;;;;22.08;31.24;102646.72;5076216;28;20040;-42
2022/03/26 10:06:45;;;;;;;58.33;28.75;;;;;;;21.97;31.12;102640.06;5075975;28;20063;-43
2022/03/26 10:09:11;;;;;;;53.42;26.73;;;;;;;23.21;30.85;102634.19;5075996;28;20036;-45
2022/03/26 10:11:36;;;;;;;53.53;27.38;;;;;;;24.02;29.73;102629.53;5058290;28;20491;-42
2022/03/26 10:14:02;;;;;;;55.08;27.58;;;;;;;24.42;27.86;102631.72;5074331;28;20033;-42
2022/03/26 10:16:28;;;;;;;44.75;25.60;;;;;;;24.91;27.95;102626.97;5074984;28;20077;-45
2022/03/26 10:18:58;;;;;;;53.70;28.45;;;;;;;25.05;27.07;102629.50;5075618;28;20033;-43
2022/03/26 10:21:23;;;;;;;42.53;25.95;;;;;;;24.82;27.64;102620.16;5057930;28;20071;-45
2022/03/26 10:23:51;;;;;;;45.70;25.48;;;;;;;25.27;26.82;102624.25;5057659;28;20063;-44
2022/03/26 10:26:22;;;;;;;49.28;26.08;;;;;;;25.68;26.58;102622.41;5074127;28;20032;-45
2022/03/26 10:28:52;;;;;;;42.38;25.38;;;;;;;26.22;26.11;102634.00;5075566;28;20043;-42
2022/03/26 10:34:09;;;;;;;41.25;22.80;;;;;;;26.99;24.68;102620.75;5073771;28;20029;-44
2022/03/26 10:36:47;;;;;;;41.85;24.60;;;;;;;27.19;24.85;102620.22;5073920;28;20047;-44
2022/03/26 10:39:16;;;;;;;39.45;23.35;;;;;;;27.32;24.21;102621.81;5075249;28;20035;-44
2022/03/26 10:41:42;;;;;;;47.50;26.77;;;;;;;27.36;23.39;102617.47;5075261;28;20445;-46
2022/03/26 10:44:11;;;;;;;43.20;25.13;;;;;;;27.50;24.56;102617.91;5074949;28;20044;-46
2022/03/26 10:46:42;;;;;;;47.20;25.15;;;;;;;28.14;22.80;102609.06;5073596;28;20024;-45
2022/03/26 10:49:07;;;;;;;49.47;25.90;;;;;;;28.36;23.89;102611.75;5074879;28;20033;-47
2022/03/26 10:51:38;;;;;;;50.88;27.00;;;;;;;28.59;22.63;102615.31;5074985;28;20039;-43
2022/03/26 10:54:09;;;;;;;44.03;26.75;;;;;;;28.13;22.38;102613.75;5073454;28;20393;-42
2022/03/26 10:56:37;;;;;;;46.55;25.10;;;;;;;27.58;23.61;102612.81;5074340;28;20048;-44
2022/03/26 10:59:03;;;;;;;48.47;24.38;;;;;;;28.33;23.93;102591.00;5074795;28;20025;-44
2022/03/26 11:01:28;;;;;;;48.95;25.35;;;;;;;29.22;22.62;102607.25;5074404;28;20471;-45
2022/03/26 11:03:54;;;;;;;45.10;25.95;;;;;;;29.20;22.13;102604.72;5074861;28;20028;-49
2022/03/26 11:06:25;;;;;;;46.35;24.95;;;;;;;29.01;21.67;102600.69;5074313;28;20396;-48
2022/03/26 11:08:59;;;;;;;47.97;25.58;;;;;;;28.68;21.36;102605.44;5074408;28;20429;-43
2022/03/26 11:11:27;;;;;;;51.20;27.27;;;;;;;28.41;21.57;102599.91;5074648;28;20032;-43
2022/03/26 11:13:58;;;;;;;51.08;27.33;;;;;;;28.77;22.16;102604.69;5072832;28;20060;-44
2022/03/26 11:17:02;;;;;;;44.72;26.38;;;;;;;28.33;20.67;102596.53;5074438;28;20077;-45